Boulevard, New York
Current Conditions -  °F | °C
As of 8:51 AM on Wednesday 22 Oct 2014 (Local Time) from KLGA Reporting Station
Light Rain Light Rain  
Wind Chill: 13°   Ceiling: 1800
Heat Index: 13°   Visibility: 7mi
Dew Point: 11°   Wind: 12mph
Humidity: 89%   Direction: 30°NNE
Pressure: 29.93"   Gusts: NA
Location:  40.8106°N, 73.8845°W
Report Text: KLGA 221251Z 03010KT 7SM -RA SCT011 OVC018 13/11 A2993 RMK AO2 SLP135 P0009 T01280111
Loading
Personal Weather Stations






























Interactive Weather Map
Tropical Storm Tracking
New forecast layout! Learn more

10-Day Weather Forecast

Advertisements
Track Severe Weather on mobile